Time;durP1;ratioP1;P1;durP2;ratioP2;P2;SDS_P1;SDS_P2;PMS_P1;PMS_P2;Temp;Humidity;BMP_temperature;BMP_pressure;BME280_temperature;BME280_humidity;BME280_pressure;Samples;Min_cycle;Max_cycle;Signal;HPM_P1;HPM_P2
2022/10/10 00:00:40;;;;;;;9.20;5.03;;;18.70;55.80;;;;;;5096625;28;20390;-82
2022/10/10 00:03:06;;;;;;;8.00;5.28;;;18.70;55.70;;;;;;5096127;28;20055;-82
2022/10/10 00:05:33;;;;;;;12.48;5.45;;;18.70;55.20;;;;;;5078379;28;20115;-82
2022/10/10 00:07:58;;;;;;;9.00;5.20;;;18.70;55.30;;;;;;5093460;28;20025;-82
2022/10/10 00:10:25;;;;;;;14.15;5.22;;;18.70;55.80;;;;;;5096413;28;20034;-82
2022/10/10 00:12:51;;;;;;;8.43;4.82;;;18.60;55.30;;;;;;5077998;28;20398;-83
2022/10/10 00:15:17;;;;;;;9.73;5.97;;;18.60;55.60;;;;;;5096095;28;20055;-82
2022/10/10 00:17:43;;;;;;;9.30;5.20;;;18.40;55.70;;;;;;5096261;28;20028;-82
2022/10/10 00:20:10;;;;;;;14.05;6.78;;;18.40;55.50;;;;;;5078162;28;20021;-82
2022/10/10 00:22:36;;;;;;;13.43;6.80;;;18.00;56.40;;;;;;5096121;28;20039;-82
2022/10/10 00:25:03;;;;;;;13.65;6.30;;;18.10;56.30;;;;;;5096332;28;20024;-82
2022/10/10 00:27:29;;;;;;;11.18;5.85;;;18.10;56.20;;;;;;5095830;28;20028;-82
2022/10/10 00:29:54;;;;;;;13.32;5.38;;;18.30;56.00;;;;;;5078027;28;20028;-82
2022/10/10 00:32:20;;;;;;;7.38;5.60;;;18.00;55.60;;;;;;5059851;28;20048;-82
2022/10/10 00:34:46;;;;;;;9.25;5.78;;;17.70;56.00;;;;;;5037785;28;20025;-83
2022/10/10 00:37:11;;;;;;;10.00;5.57;;;17.30;56.80;;;;;;5055671;28;20040;-82
2022/10/10 00:39:37;;;;;;;7.45;4.80;;;16.90;57.60;;;;;;5055607;28;20021;-83
2022/10/10 00:42:03;;;;;;;11.45;6.03;;;17.00;57.30;;;;;;5049260;28;20110;-83
2022/10/10 00:44:29;;;;;;;7.10;5.25;;;16.80;58.00;;;;;;5035517;28;20032;-83
2022/10/10 00:46:54;;;;;;;8.98;4.70;;;16.80;58.30;;;;;;5023781;28;20464;-83
2022/10/10 00:49:25;;;;;;;10.20;4.65;;;16.80;59.00;;;;;;5037810;28;20364;-83
2022/10/10 00:51:56;;;;;;;6.95;4.20;;;16.90;58.70;;;;;;5070574;28;20572;-83
2022/10/10 00:54:23;;;;;;;10.60;4.82;;;16.40;59.80;;;;;;5054500;28;20049;-82
2022/10/10 00:56:57;;;;;;;7.43;4.75;;;16.40;60.20;;;;;;5051734;28;20033;-83
2022/10/10 00:59:24;;;;;;;7.75;4.50;;;16.70;60.20;;;;;;5017732;28;20400;-83
2022/10/10 01:01:50;;;;;;;10.23;4.90;;;16.90;59.70;;;;;;5017598;28;20025;-83
2022/10/10 01:04:28;;;;;;;8.18;4.70;;;17.00;57.90;;;;;;5017652;28;20048;-83
2022/10/10 01:06:54;;;;;;;15.43;5.57;;;17.30;57.00;;;;;;5035129;28;20025;-83
2022/10/10 01:09:20;;;;;;;8.80;5.10;;;17.40;56.80;;;;;;5035246;28;20032;-83
2022/10/10 01:11:59;;;;;;;10.07;4.70;;;17.40;56.80;;;;;;5050324;28;20028;-83
2022/10/10 01:14:34;;;;;;;7.40;5.07;;;17.40;56.90;;;;;;5017796;28;20156;-83
2022/10/10 01:17:32;;;;;;;6.90;4.90;;;17.40;56.60;;;;;;5034787;28;20318;-83
2022/10/10 01:20:16;;;;;;;10.48;5.15;;;17.10;56.90;;;;;;5016786;28;20057;-83
2022/10/10 01:22:59;;;;;;;10.65;4.88;;;17.10;57.70;;;;;;5033877;28;20048;-84
2022/10/10 01:25:56;;;;;;;8.60;5.13;;;17.10;58.10;;;;;;5034923;28;20024;-83
2022/10/10 01:28:32;;;;;;;10.73;5.63;;;17.10;57.10;;;;;;5054426;28;20040;-83
2022/10/10 01:30:59;;;;;;;12.38;5.80;;;17.00;56.80;;;;;;5054723;28;20052;-83
2022/10/10 01:33:36;;;;;;;11.10;6.05;;;17.00;56.90;;;;;;5039176;28;20025;-83
2022/10/10 01:36:21;;;;;;;13.45;6.03;;;17.20;56.70;;;;;;5070288;28;20033;-83
2022/10/10 01:38:53;;;;;;;9.43;5.53;;;17.10;56.40;;;;;;5038349;28;20023;-83
2022/10/10 01:41:30;;;;;;;12.07;5.80;;;16.70;57.60;;;;;;5073370;28;20032;-83
2022/10/10 01:43:57;;;;;;;11.07;6.28;;;16.60;57.80;;;;;;5056431;28;20027;-83
2022/10/10 01:46:24;;;;;;;12.57;6.25;;;16.60;58.00;;;;;;5073964;28;20024;-83
2022/10/10 01:48:53;;;;;;;15.23;6.38;;;16.60;57.80;;;;;;5059381;28;20017;-83
2022/10/10 01:51:19;;;;;;;11.80;6.85;;;16.80;57.60;;;;;;5054242;28;20379;-82
2022/10/10 01:53:57;;;;;;;9.73;5.65;;;16.70;57.90;;;;;;5052949;28;20025;-83
2022/10/10 01:56:32;;;;;;;11.38;6.10;;;16.70;57.50;;;;;;5054260;28;20060;-83
2022/10/10 01:59:14;;;;;;;10.48;6.10;;;16.70;56.80;;;;;;5054295;28;20025;-84
2022/10/10 02:02:33;;;;;;;11.73;6.72;;;16.70;57.50;;;;;;5053785;28;20051;-84
2022/10/10 02:05:18;;;;;;;12.32;5.65;;;16.80;57.70;;;;;;5006706;28;20120;-83
2022/10/10 02:08:22;;;;;;;14.38;4.95;;;16.80;57.20;;;;;;5032437;28;20099;-83
2022/10/10 02:10:53;;;;;;;9.77;5.18;;;16.80;56.90;;;;;;5032564;28;20606;-83
2022/10/10 02:13:22;;;;;;;9.38;4.90;;;16.70;57.80;;;;;;5031966;28;20037;-83
2022/10/10 02:15:52;;;;;;;9.77;5.13;;;16.80;57.40;;;;;;5032138;28;20037;-83
2022/10/10 02:18:26;;;;;;;9.00;5.50;;;16.80;57.10;;;;;;5015790;28;20545;-83
2022/10/10 02:20:53;;;;;;;8.32;4.88;;;16.90;57.10;;;;;;5031125;28;20029;-83
2022/10/10 02:23:20;;;;;;;7.63;4.88;;;16.80;57.00;;;;;;5032111;28;20057;-84
2022/10/10 02:26:14;;;;;;;9.23;5.35;;;16.80;57.40;;;;;;5031981;28;20091;-84
2022/10/10 02:29:01;;;;;;;7.18;4.43;;;16.70;57.60;;;;;;5030578;28;20034;-82
2022/10/10 02:31:36;;;;;;;7.85;4.45;;;16.40;57.40;;;;;;5031586;28;20042;-83
2022/10/10 02:34:12;;;;;;;9.02;4.32;;;16.00;58.40;;;;;;5032023;28;20215;-84
2022/10/10 02:36:41;;;;;;;9.73;4.90;;;16.20;58.30;;;;;;5031171;28;20514;-82
2022/10/10 02:39:09;;;;;;;9.07;4.63;;;16.10;58.00;;;;;;5041762;28;20032;-83
2022/10/10 02:41:35;;;;;;;8.20;4.55;;;16.30;57.70;;;;;;5044987;28;20028;-83
2022/10/10 02:44:02;;;;;;;8.93;4.78;;;16.30;58.40;;;;;;5073557;28;20028;-83
2022/10/10 02:46:27;;;;;;;9.77;4.68;;;16.30;57.80;;;;;;5073380;28;20024;-83
2022/10/10 02:48:53;;;;;;;7.78;4.53;;;16.50;57.80;;;;;;5055377;28;20414;-83
2022/10/10 02:51:19;;;;;;;8.60;4.82;;;16.80;57.30;;;;;;5055508;28;20029;-83
2022/10/10 02:53:45;;;;;;;6.60;4.20;;;16.90;56.70;;;;;;5056112;28;20025;-83
2022/10/10 02:56:11;;;;;;;8.75;4.25;;;16.50;57.50;;;;;;5053458;28;20487;-83
2022/10/10 02:58:36;;;;;;;9.10;4.60;;;16.20;58.80;;;;;;5035552;28;20061;-83
2022/10/10 03:01:03;;;;;;;8.32;5.03;;;16.10;58.90;;;;;;5075294;28;20032;-82
2022/10/10 03:03:28;;;;;;;8.25;4.28;;;16.40;58.20;;;;;;5093412;28;20027;-82
2022/10/10 03:05:54;;;;;;;8.95;4.68;;;16.60;57.70;;;;;;5092167;28;20032;-82
2022/10/10 03:08:20;;;;;;;7.45;4.40;;;16.80;57.40;;;;;;5074097;28;20144;-83
2022/10/10 03:11:02;;;;;;;6.93;4.40;;;16.90;57.00;;;;;;5072854;28;20029;-83
2022/10/10 03:13:28;;;;;;;6.95;4.25;;;16.80;57.10;;;;;;5089836;28;20023;-84
2022/10/10 03:15:53;;;;;;;7.53;4.18;;;16.80;56.70;;;;;;5076646;28;20043;-83
2022/10/10 03:18:19;;;;;;;9.13;4.72;;;16.50;57.80;;;;;;5059711;28;20024;-84
2022/10/10 03:20:49;;;;;;;7.57;4.70;;;16.20;58.30;;;;;;5077264;28;20020;-84
2022/10/10 03:23:15;;;;;;;8.75;5.03;;;16.40;57.70;;;;;;5047977;28;20017;-84
2022/10/10 03:25:44;;;;;;;8.55;4.53;;;16.10;58.50;;;;;;5059119;28;20079;-83
2022/10/10 03:28:10;;;;;;;7.30;4.53;;;16.30;58.40;;;;;;5059281;28;20106;-84
2022/10/10 03:30:40;;;;;;;8.13;4.15;;;16.50;57.40;;;;;;5059042;28;20016;-83
2022/10/10 03:33:07;;;;;;;6.60;4.30;;;16.40;58.00;;;;;;5067332;28;20045;-83
2022/10/10 03:35:33;;;;;;;7.55;4.90;;;16.70;57.30;;;;;;5036846;28;20083;-84
2022/10/10 03:37:59;;;;;;;10.27;4.57;;;16.80;56.80;;;;;;5036134;28;20017;-84
2022/10/10 03:40:27;;;;;;;7.72;4.47;;;16.90;56.60;;;;;;5037640;28;20033;-83
2022/10/10 03:42:52;;;;;;;7.68;4.50;;;16.60;57.30;;;;;;5039100;28;20025;-84
2022/10/10 03:45:18;;;;;;;7.13;4.85;;;16.60;57.10;;;;;;5039229;28;20044;-83
2022/10/10 03:47:44;;;;;;;8.18;5.05;;;16.70;56.90;;;;;;5039275;28;20035;-84
2022/10/10 03:50:09;;;;;;;8.10;4.60;;;16.40;58.70;;;;;;5039048;28;20468;-84
2022/10/10 03:52:35;;;;;;;7.50;4.32;;;16.50;57.80;;;;;;5038930;28;20027;-84
2022/10/10 03:55:01;;;;;;;7.97;5.03;;;16.60;57.10;;;;;;5038615;28;20116;-83
2022/10/10 03:57:27;;;;;;;9.18;4.57;;;16.60;58.00;;;;;;5056483;28;20483;-84
2022/10/10 03:59:53;;;;;;;8.25;4.60;;;16.50;58.50;;;;;;5055989;28;20021;-83
2022/10/10 04:02:18;;;;;;;9.68;4.90;;;16.60;58.30;;;;;;5038589;28;20060;-84
2022/10/10 04:04:44;;;;;;;8.50;4.38;;;16.50;58.70;;;;;;5056386;28;20486;-84
2022/10/10 04:07:09;;;;;;;7.18;4.60;;;16.50;57.10;;;;;;5038757;28;20081;-83
2022/10/10 04:09:35;;;;;;;6.82;4.70;;;16.40;58.20;;;;;;5056450;28;20029;-84
2022/10/10 04:12:01;;;;;;;9.85;4.88;;;16.40;57.30;;;;;;5055226;28;20072;-84
2022/10/10 04:14:27;;;;;;;8.35;4.75;;;16.60;57.10;;;;;;5074134;28;20085;-83
2022/10/10 04:16:52;;;;;;;7.35;4.72;;;16.60;57.30;;;;;;5066845;28;20033;-84
2022/10/10 04:19:18;;;;;;;7.30;4.75;;;16.60;56.90;;;;;;5033629;28;20436;-83
2022/10/10 04:21:44;;;;;;;7.53;4.65;;;16.60;56.80;;;;;;5068278;28;20029;-83
2022/10/10 04:24:10;;;;;;;6.90;4.60;;;16.70;57.00;;;;;;5074542;28;20023;-83
2022/10/10 04:26:36;;;;;;;8.05;4.60;;;16.70;57.40;;;;;;5075106;28;20368;-82
2022/10/10 04:29:02;;;;;;;7.20;4.50;;;16.80;56.80;;;;;;5074628;28;20039;-83
2022/10/10 04:31:28;;;;;;;7.68;4.60;;;16.80;56.40;;;;;;5051439;28;20058;-82
2022/10/10 04:33:54;;;;;;;10.00;4.70;;;16.90;56.10;;;;;;5095334;28;20028;-83
2022/10/10 04:36:19;;;;;;;6.68;4.07;;;17.00;56.20;;;;;;5095167;28;20036;-84
2022/10/10 04:38:45;;;;;;;9.40;4.10;;;16.80;56.80;;;;;;5091745;28;20077;-81
2022/10/10 04:41:11;;;;;;;8.10;4.57;;;16.60;57.30;;;;;;5094755;28;20043;-83
2022/10/10 04:43:37;;;;;;;7.90;4.85;;;16.50;58.10;;;;;;5094826;28;20463;-83
2022/10/10 04:46:02;;;;;;;9.82;4.88;;;16.60;56.90;;;;;;5076791;28;20071;-84
2022/10/10 04:48:28;;;;;;;8.82;4.38;;;16.80;56.30;;;;;;5077080;28;20360;-84
2022/10/10 04:50:56;;;;;;;6.60;4.35;;;16.90;56.50;;;;;;5077547;28;20032;-85
2022/10/10 04:53:22;;;;;;;7.90;4.80;;;16.80;56.30;;;;;;5095248;28;20028;-84
2022/10/10 04:55:47;;;;;;;7.50;4.13;;;16.90;55.80;;;;;;5077008;28;20062;-84
2022/10/10 04:58:13;;;;;;;9.13;4.28;;;16.60;57.10;;;;;;5077071;28;20024;-85
2022/10/10 05:00:39;;;;;;;9.50;4.63;;;16.30;58.20;;;;;;5095205;28;20382;-82
2022/10/10 05:03:06;;;;;;;10.20;4.45;;;16.40;57.50;;;;;;5077211;28;20125;-81
2022/10/10 05:05:31;;;;;;;7.70;4.57;;;16.30;57.90;;;;;;5103152;28;20070;-81
2022/10/10 05:07:57;;;;;;;8.30;4.30;;;16.20;58.20;;;;;;5097185;28;20461;-81
2022/10/10 05:10:24;;;;;;;9.05;4.35;;;16.30;57.50;;;;;;5094739;28;20020;-83
2022/10/10 05:12:50;;;;;;;11.77;4.90;;;16.20;57.80;;;;;;5076829;28;20016;-84
2022/10/10 05:15:17;;;;;;;7.65;4.22;;;15.70;59.30;;;;;;5078699;28;20042;-83
2022/10/10 05:17:42;;;;;;;8.38;4.70;;;15.60;60.40;;;;;;5094777;28;20394;-82
2022/10/10 05:20:09;;;;;;;6.95;4.40;;;15.80;59.60;;;;;;5096023;28;20084;-82
2022/10/10 05:22:34;;;;;;;7.38;4.50;;;16.20;59.00;;;;;;5097555;28;20028;-83
2022/10/10 05:25:00;;;;;;;7.47;4.20;;;16.30;58.60;;;;;;5076393;28;20081;-81
2022/10/10 05:27:26;;;;;;;8.23;4.32;;;16.60;57.70;;;;;;5094513;28;20024;-82
2022/10/10 05:29:52;;;;;;;9.07;4.68;;;16.80;57.60;;;;;;5094343;28;20044;-83
2022/10/10 05:32:18;;;;;;;15.27;4.07;;;17.00;57.40;;;;;;5110333;28;20047;-80
2022/10/10 05:34:44;;;;;;;10.00;4.30;;;17.00;57.40;;;;;;5096916;28;20022;-82
2022/10/10 05:37:10;;;;;;;7.95;4.05;;;17.10;57.00;;;;;;5109033;28;20032;-81
2022/10/10 05:39:36;;;;;;;7.78;4.43;;;17.20;56.70;;;;;;5075734;28;20024;-81
2022/10/10 05:42:02;;;;;;;6.47;3.85;;;17.20;56.80;;;;;;5093535;28;20078;-82
2022/10/10 05:44:28;;;;;;;7.15;3.80;;;17.30;57.10;;;;;;5075719;28;20827;-80
2022/10/10 05:46:53;;;;;;;15.95;6.75;;;17.50;56.50;;;;;;5092434;28;20028;-82
2022/10/10 05:49:19;;;;;;;8.88;4.65;;;17.30;56.70;;;;;;5075256;28;20020;-80
2022/10/10 05:51:45;;;;;;;7.47;4.30;;;17.20;57.20;;;;;;5093603;28;20467;-82
2022/10/10 05:54:10;;;;;;;8.10;4.78;;;17.30;57.10;;;;;;5094210;28;20039;-85
2022/10/10 05:56:36;;;;;;;17.58;4.68;;;17.40;57.50;;;;;;5076353;28;20039;-82
2022/10/10 05:59:02;;;;;;;10.15;4.47;;;17.40;57.40;;;;;;5071566;28;20502;-86
2022/10/10 06:01:28;;;;;;;23.50;6.15;;;17.60;57.50;;;;;;5089400;28;20035;-84
2022/10/10 06:03:54;;;;;;;7.70;4.00;;;17.30;58.00;;;;;;5056303;28;20142;-84
2022/10/10 06:06:22;;;;;;;7.55;4.10;;;17.40;57.80;;;;;;5089644;28;20036;-84
2022/10/10 06:08:48;;;;;;;11.88;4.25;;;17.60;57.00;;;;;;5055815;28;20020;-83
2022/10/10 06:11:16;;;;;;;20.50;5.60;;;17.70;57.40;;;;;;5055908;28;20032;-84
2022/10/10 06:13:42;;;;;;;29.00;5.93;;;18.00;57.00;;;;;;5055995;28;20047;-84
2022/10/10 06:16:08;;;;;;;18.15;5.95;;;17.90;57.30;;;;;;5068357;28;20032;-81
2022/10/10 06:18:34;;;;;;;13.10;5.57;;;18.00;57.90;;;;;;5093730;28;20105;-83
2022/10/10 06:21:04;;;;;;;11.30;5.22;;;18.20;57.10;;;;;;5075409;28;20440;-82
2022/10/10 06:23:30;;;;;;;6.05;4.00;;;18.30;56.40;;;;;;5076035;28;20107;-82
2022/10/10 06:25:56;;;;;;;8.90;4.13;;;18.40;55.80;;;;;;5075242;28;20459;-83
2022/10/10 06:28:22;;;;;;;6.32;3.42;;;18.60;55.50;;;;;;5093943;28;20077;-83
2022/10/10 06:30:49;;;;;;;7.85;4.00;;;18.50;54.40;;;;;;5075304;28;20089;-83
2022/10/10 06:33:17;;;;;;;20.05;8.50;;;18.50;55.30;;;;;;5075639;28;20543;-84
2022/10/10 06:35:46;;;;;;;16.73;9.90;;;18.50;54.70;;;;;;5114054;28;20031;-81
2022/10/10 06:38:13;;;;;;;10.48;6.45;;;18.60;55.00;;;;;;5074212;28;20034;-83
2022/10/10 06:40:40;;;;;;;12.05;4.85;;;18.60;54.30;;;;;;5099443;28;20039;-82
2022/10/10 06:43:10;;;;;;;5.75;3.70;;;18.30;56.20;;;;;;5095576;28;20024;-82
2022/10/10 06:45:37;;;;;;;7.00;4.10;;;18.10;55.40;;;;;;5075438;28;20506;-82
2022/10/10 06:48:04;;;;;;;7.07;3.65;;;18.30;55.90;;;;;;5099697;28;20026;-80
2022/10/10 06:50:29;;;;;;;9.45;3.80;;;18.60;55.10;;;;;;5095861;28;20055;-81
2022/10/10 06:52:55;;;;;;;9.18;5.43;;;18.70;54.70;;;;;;5074626;28;20101;-84
2022/10/10 06:55:21;;;;;;;7.70;3.70;;;19.00;54.40;;;;;;5078877;28;20028;-81
2022/10/10 06:57:47;;;;;;;6.50;4.07;;;18.50;53.60;;;;;;5076242;28;20039;-81
2022/10/10 07:00:13;;;;;;;9.95;4.32;;;18.20;55.90;;;;;;5088636;28;20066;-81
2022/10/10 07:02:39;;;;;;;8.15;4.13;;;18.50;54.80;;;;;;5093151;28;20036;-82
2022/10/10 07:05:16;;;;;;;7.80;3.75;;;18.60;54.70;;;;;;5075223;28;20050;-81
2022/10/10 07:07:43;;;;;;;7.70;3.63;;;18.80;54.20;;;;;;5092123;28;20059;-82
2022/10/10 07:10:13;;;;;;;6.68;3.53;;;19.10;53.90;;;;;;5073353;28;20028;-84
2022/10/10 07:12:39;;;;;;;8.07;3.47;;;19.50;53.60;;;;;;5073974;28;20081;-80
2022/10/10 07:15:06;;;;;;;5.50;3.50;;;19.80;52.60;;;;;;5090475;28;20033;-82
2022/10/10 07:17:32;;;;;;;6.95;3.40;;;20.00;52.30;;;;;;5091534;28;20063;-83
2022/10/10 07:19:58;;;;;;;6.78;3.63;;;20.10;52.70;;;;;;5058284;28;20024;-86
2022/10/10 07:22:24;;;;;;;6.25;3.92;;;20.00;52.10;;;;;;5073885;28;20028;-84
2022/10/10 07:24:50;;;;;;;9.05;3.83;;;20.30;52.10;;;;;;5073730;28;20027;-84
2022/10/10 07:27:15;;;;;;;7.72;3.50;;;20.30;52.20;;;;;;5073714;28;20024;-80
2022/10/10 07:29:41;;;;;;;8.10;3.45;;;20.20;52.00;;;;;;5091993;28;20021;-82
2022/10/10 07:32:07;;;;;;;7.07;4.32;;;20.40;52.40;;;;;;5072608;28;20048;-83
2022/10/10 07:34:35;;;;;;;7.95;3.38;;;20.70;51.70;;;;;;5072587;28;20020;-88
2022/10/10 07:37:01;;;;;;;5.78;3.60;;;20.40;52.50;;;;;;5090543;28;20036;-82
2022/10/10 07:39:26;;;;;;;8.02;3.60;;;20.40;51.80;;;;;;5073992;28;20035;-82
2022/10/10 07:41:52;;;;;;;8.07;3.92;;;20.60;52.40;;;;;;5091632;28;20054;-86
2022/10/10 07:44:18;;;;;;;6.53;3.15;;;20.70;51.90;;;;;;5074407;28;20485;-83
2022/10/10 07:46:44;;;;;;;6.82;3.20;;;20.70;51.40;;;;;;5092159;28;20028;-83
2022/10/10 07:49:10;;;;;;;7.47;4.18;;;20.90;51.50;;;;;;5074331;28;20390;-85
2022/10/10 07:51:36;;;;;;;10.15;4.20;;;21.20;51.50;;;;;;5074749;28;20024;-84
2022/10/10 07:54:02;;;;;;;7.15;3.42;;;21.30;51.20;;;;;;5074555;28;20020;-85
2022/10/10 07:56:28;;;;;;;7.53;3.47;;;21.40;51.10;;;;;;5074518;28;20039;-84
2022/10/10 07:58:54;;;;;;;6.45;3.45;;;21.40;51.60;;;;;;5092775;28;20023;-86
2022/10/10 08:01:20;;;;;;;6.07;3.35;;;21.60;51.00;;;;;;5094518;28;20466;-84
2022/10/10 08:03:45;;;;;;;6.22;2.70;;;21.50;50.50;;;;;;5096143;28;20394;-84
2022/10/10 08:06:14;;;;;;;5.38;3.13;;;20.90;49.20;;;;;;5078157;28;20024;-85
2022/10/10 08:08:41;;;;;;;5.10;2.83;;;20.70;50.40;;;;;;5096316;28;20028;-83
2022/10/10 08:11:08;;;;;;;4.95;2.85;;;20.70;50.90;;;;;;5095737;28;20039;-85
2022/10/10 08:13:35;;;;;;;11.13;2.75;;;20.70;50.70;;;;;;5077896;28;20419;-82
2022/10/10 08:16:02;;;;;;;6.97;2.92;;;20.80;50.60;;;;;;5095602;28;20040;-81
2022/10/10 08:18:27;;;;;;;4.82;2.80;;;21.20;51.30;;;;;;5077396;28;20028;-82
2022/10/10 08:21:00;;;;;;;7.63;2.75;;;21.50;50.50;;;;;;5095675;28;20034;-82
2022/10/10 08:23:26;;;;;;;5.15;2.88;;;21.70;49.60;;;;;;5078402;28;20032;-84
2022/10/10 08:25:52;;;;;;;7.00;2.90;;;21.60;50.30;;;;;;5097041;28;20546;-84
2022/10/10 08:28:17;;;;;;;5.93;2.40;;;21.10;47.00;;;;;;5077644;28;20399;-83
2022/10/10 08:30:43;;;;;;;5.20;2.92;;;20.50;48.80;;;;;;5096379;28;20055;-87
2022/10/10 08:33:09;;;;;;;7.32;2.83;;;20.00;49.30;;;;;;5077512;28;20039;-83
2022/10/10 08:35:38;;;;;;;9.85;4.78;;;20.30;50.20;;;;;;5095493;28;20060;-84
2022/10/10 08:38:05;;;;;;;62.73;23.30;;;20.80;49.60;;;;;;5077914;28;20028;-84
2022/10/10 08:40:32;;;;;;;63.95;27.42;;;20.90;48.20;;;;;;5077721;28;20035;-87
2022/10/10 08:43:03;;;;;;;47.33;19.35;;;20.10;49.50;;;;;;5078056;28;20474;-84
2022/10/10 08:45:31;;;;;;;11.18;5.18;;;19.80;50.30;;;;;;5078153;28;20024;-84
2022/10/10 08:48:06;;;;;;;4.68;2.63;;;20.20;50.80;;;;;;5077716;28;20389;-85
2022/10/10 08:50:39;;;;;;;60.90;25.23;;;20.80;50.00;;;;;;5077462;28;20028;-84
2022/10/10 08:53:30;;;;;;;19.15;8.40;;;20.70;49.40;;;;;;5076885;28;20024;-83
2022/10/10 08:55:56;;;;;;;12.40;3.92;;;21.10;50.50;;;;;;5077097;28;20067;-85
2022/10/10 08:58:44;;;;;;;6.57;3.15;;;21.40;49.30;;;;;;5077012;28;20077;-84
2022/10/10 09:01:19;;;;;;;24.13;9.27;;;21.80;49.10;;;;;;5097611;28;20048;-88
2022/10/10 09:03:47;;;;;;;11.25;5.72;;;21.50;49.00;;;;;;5096136;28;20395;-86
2022/10/10 09:06:31;;;;;;;12.00;2.92;;;21.60;49.20;;;;;;5077616;28;20493;-86
2022/10/10 09:09:14;;;;;;;6.18;2.70;;;21.70;48.50;;;;;;5095341;28;20470;-87
2022/10/10 09:12:08;;;;;;;5.97;2.92;;;21.90;49.30;;;;;;5076721;28;20035;-84
2022/10/10 09:14:52;;;;;;;7.63;3.10;;;22.10;48.10;;;;;;5095450;28;20050;-87
2022/10/10 09:17:40;;;;;;;5.28;3.03;;;21.60;48.70;;;;;;5095366;28;20081;-87
2022/10/10 09:20:40;;;;;;;6.15;2.60;;;21.60;49.40;;;;;;5077036;28;20024;-86
2022/10/10 09:23:14;;;;;;;6.90;2.60;;;22.20;48.70;;;;;;5077882;28;20020;-84
2022/10/10 09:25:47;;;;;;;6.75;2.50;;;22.10;47.30;;;;;;5095296;28;20013;-84
2022/10/10 09:28:32;;;;;;;5.82;3.03;;;21.70;48.20;;;;;;5077373;28;20439;-87
2022/10/10 09:31:00;;;;;;;5.55;2.67;;;21.20;49.00;;;;;;5094221;28;20039;-89
2022/10/10 09:33:42;;;;;;;6.43;2.85;;;21.40;49.40;;;;;;5095127;28;20024;-85
2022/10/10 09:36:16;;;;;;;5.25;2.50;;;22.00;49.30;;;;;;5094033;28;20115;-85
2022/10/10 09:38:45;;;;;;;6.68;2.42;;;22.00;48.10;;;;;;5077026;28;20016;-87
2022/10/10 09:41:19;;;;;;;11.15;2.75;;;22.00;48.10;;;;;;5076837;28;20028;-86
2022/10/10 09:43:46;;;;;;;5.22;2.70;;;22.10;47.60;;;;;;5095014;28;20107;-89
2022/10/10 09:46:13;;;;;;;6.43;3.00;;;22.10;49.40;;;;;;5076445;28;20080;-84
2022/10/10 09:48:41;;;;;;;5.20;2.63;;;22.60;48.10;;;;;;5094519;28;20471;-82
2022/10/10 09:51:15;;;;;;;5.97;2.45;;;23.10;47.70;;;;;;5076329;28;20024;-83
2022/10/10 09:53:50;;;;;;;5.80;2.85;;;23.10;46.80;;;;;;5094411;28;20125;-87
2022/10/10 09:56:19;;;;;;;6.80;2.80;;;22.90;47.00;;;;;;5075636;28;20032;-83
2022/10/10 09:58:48;;;;;;;5.20;3.13;;;23.20;47.00;;;;;;5075609;28;20023;-82
2022/10/10 10:01:17;;;;;;;5.32;2.88;;;23.10;47.60;;;;;;5075881;28;20035;-86
2022/10/10 10:03:44;;;;;;;7.28;2.72;;;23.20;47.80;;;;;;5094001;28;20077;-86
2022/10/10 10:06:13;;;;;;;6.80;2.80;;;23.00;47.60;;;;;;5093828;28;20378;-82
2022/10/10 10:08:40;;;;;;;5.95;2.45;;;23.10;47.20;;;;;;5076163;28;20020;-80
2022/10/10 10:11:27;;;;;;;4.55;2.40;;;23.10;47.80;;;;;;5093464;28;20063;-86
2022/10/10 10:13:54;;;;;;;6.55;2.75;;;23.40;47.70;;;;;;5076248;28;20016;-84
2022/10/10 10:16:33;;;;;;;5.63;2.65;;;23.40;47.70;;;;;;5076046;28;20038;-86
2022/10/10 10:18:59;;;;;;;6.20;2.47;;;23.60;46.30;;;;;;5094003;28;20027;-84
2022/10/10 10:21:25;;;;;;;5.47;2.45;;;22.90;47.30;;;;;;5075688;28;20039;-92
2022/10/10 10:23:59;;;;;;;4.63;2.20;;;23.20;48.20;;;;;;5075272;28;20028;-82
2022/10/10 10:26:40;;;;;;;4.57;2.28;;;23.50;47.20;;;;;;5093665;28;20016;-84
2022/10/10 10:29:25;;;;;;;4.50;2.38;;;23.70;47.90;;;;;;5075900;28;20390;-83
2022/10/10 10:31:53;;;;;;;6.47;2.17;;;23.70;45.50;;;;;;5092769;28;20090;-84
2022/10/10 10:34:47;;;;;;;9.00;2.30;;;23.10;46.10;;;;;;5093719;28;20099;-85
2022/10/10 10:37:28;;;;;;;4.50;2.20;;;23.10;46.90;;;;;;5092966;28;20040;-83
2022/10/10 10:40:32;;;;;;;6.85;2.60;;;23.60;46.70;;;;;;5094475;28;20020;-82
2022/10/10 10:43:19;;;;;;;4.80;2.17;;;23.90;45.80;;;;;;5012444;28;20529;-83
2022/10/10 10:46:24;;;;;;;4.85;2.28;;;24.00;45.60;;;;;;5011538;28;20045;-87
2022/10/10 10:49:00;;;;;;;5.90;2.40;;;24.30;45.60;;;;;;4995139;28;20030;-88
2022/10/10 10:51:45;;;;;;;5.93;2.67;;;24.40;45.40;;;;;;5011551;28;20022;-87
2022/10/10 10:54:38;;;;;;;6.45;2.40;;;24.40;46.30;;;;;;4995607;28;20441;-89
2022/10/10 10:57:24;;;;;;;4.32;2.10;;;24.30;46.00;;;;;;4995358;28;20041;-90
2022/10/10 11:00:14;;;;;;;7.03;2.20;;;23.90;45.60;;;;;;4995294;28;20135;-90
2022/10/10 11:03:01;;;;;;;5.23;2.03;;;23.50;46.10;;;;;;5012372;28;20117;-85
2022/10/10 11:05:43;;;;;;;5.57;2.25;;;23.20;46.20;;;;;;5011703;28;20041;-83
2022/10/10 11:08:34;;;;;;;8.48;3.05;;;23.30;46.40;;;;;;5011347;28;20484;-86
2022/10/10 11:11:21;;;;;;;3.80;2.25;;;23.90;46.60;;;;;;4995021;28;20101;-86
2022/10/10 11:14:21;;;;;;;7.70;2.60;;;24.00;45.70;;;;;;5011431;28;20183;-82
2022/10/10 11:16:56;;;;;;;6.82;2.85;;;23.80;46.50;;;;;;5011678;28;20089;-86
2022/10/10 11:19:32;;;;;;;5.82;2.35;;;23.40;47.00;;;;;;5066935;28;20495;-83
2022/10/10 11:22:02;;;;;;;4.07;2.33;;;23.40;46.70;;;;;;5075463;28;20117;-85
2022/10/10 11:24:57;;;;;;;6.55;2.20;;;23.40;47.20;;;;;;5108958;28;20024;-84
2022/10/10 11:27:26;;;;;;;5.60;2.42;;;23.20;47.50;;;;;;5075281;28;20028;-86
2022/10/10 11:29:57;;;;;;;4.82;2.30;;;23.50;47.20;;;;;;5093368;28;20024;-84
2022/10/10 11:32:36;;;;;;;5.43;2.45;;;23.40;47.10;;;;;;5074940;28;20132;-83
2022/10/10 11:35:17;;;;;;;5.32;2.63;;;23.50;47.70;;;;;;5094424;28;20027;-88
2022/10/10 11:37:48;;;;;;;6.45;3.15;;;23.70;46.80;;;;;;5079223;28;20082;-82
2022/10/10 11:40:43;;;;;;;3.97;2.60;;;23.90;47.40;;;;;;5080636;28;20020;-87
2022/10/10 11:43:18;;;;;;;5.25;2.40;;;23.70;46.30;;;;;;5065866;28;20028;-87
2022/10/10 11:45:47;;;;;;;5.00;2.72;;;23.80;46.70;;;;;;5079455;28;20066;-85
2022/10/10 11:48:34;;;;;;;4.13;2.30;;;23.90;46.00;;;;;;5096343;28;20046;-83
2022/10/10 11:51:18;;;;;;;6.15;2.75;;;24.10;46.80;;;;;;5079701;28;20051;-82
2022/10/10 11:53:47;;;;;;;4.38;2.47;;;24.20;47.10;;;;;;5078756;28;20063;-86
2022/10/10 11:56:28;;;;;;;6.60;2.67;;;23.60;46.60;;;;;;5079454;28;20108;-90
2022/10/10 11:59:00;;;;;;;6.65;3.03;;;23.30;47.30;;;;;;5079649;28;20027;-84
2022/10/10 12:01:36;;;;;;;5.75;2.80;;;23.30;47.70;;;;;;5078270;28;20114;-89
2022/10/10 12:04:01;;;;;;;5.72;2.65;;;23.50;47.30;;;;;;5079034;28;20028;-87
2022/10/10 12:06:36;;;;;;;6.88;3.00;;;23.50;46.70;;;;;;5096692;28;20172;-84
2022/10/10 12:09:24;;;;;;;5.22;2.63;;;23.40;47.50;;;;;;5096950;28;20031;-81
2022/10/10 12:12:00;;;;;;;6.10;2.33;;;23.50;47.20;;;;;;5078790;28;20106;-87
2022/10/10 12:14:30;;;;;;;5.65;2.60;;;23.80;47.10;;;;;;5096307;28;20020;-85
2022/10/10 12:16:56;;;;;;;9.00;2.70;;;23.90;47.50;;;;;;5078304;28;20032;-84
2022/10/10 12:19:24;;;;;;;5.97;2.40;;;24.00;47.80;;;;;;5078199;28;20032;-84
2022/10/10 12:21:58;;;;;;;6.38;4.13;;;24.10;45.70;;;;;;5078613;28;20479;-87
2022/10/10 12:24:29;;;;;;;7.85;2.30;;;24.10;46.40;;;;;;5097437;28;20093;-91
2022/10/10 12:26:55;;;;;;;5.15;2.30;;;24.00;46.40;;;;;;5072998;28;20028;-87
2022/10/10 12:29:39;;;;;;;4.15;2.22;;;23.70;45.80;;;;;;5080082;28;20050;-84
2022/10/10 12:32:14;;;;;;;5.90;2.38;;;23.50;46.10;;;;;;5080313;28;20529;-85
2022/10/10 12:34:42;;;;;;;3.72;2.20;;;23.80;46.80;;;;;;5096765;28;20024;-85
2022/10/10 12:37:24;;;;;;;6.18;2.22;;;24.10;46.20;;;;;;5077646;28;20074;-83
2022/10/10 12:40:10;;;;;;;5.30;2.35;;;24.40;45.20;;;;;;5078810;28;20028;-88
2022/10/10 12:42:45;;;;;;;5.40;2.90;;;24.00;45.40;;;;;;5081642;28;20054;-86
2022/10/10 12:45:52;;;;;;;5.13;2.45;;;24.10;45.60;;;;;;5096928;28;20028;-84
2022/10/10 12:48:20;;;;;;;3.95;2.45;;;24.30;45.10;;;;;;5014378;28;20084;-94
2022/10/10 12:50:56;;;;;;;5.05;2.72;;;23.70;46.20;;;;;;5013952;28;20096;-87
2022/10/10 12:53:25;;;;;;;7.47;2.95;;;23.90;44.70;;;;;;4996892;28;20036;-84
2022/10/10 12:55:54;;;;;;;6.63;2.50;;;24.20;45.50;;;;;;4997097;28;20034;-86
2022/10/10 12:58:39;;;;;;;6.23;2.70;;;24.50;45.10;;;;;;4997103;28;20045;-84
2022/10/10 13:01:21;;;;;;;5.18;2.70;;;24.50;45.10;;;;;;4997904;28;20142;-92
2022/10/10 13:03:49;;;;;;;4.70;2.40;;;23.90;45.50;;;;;;5014369;28;20050;-90
2022/10/10 13:06:43;;;;;;;6.13;2.47;;;23.90;45.10;;;;;;5014940;28;20049;-84